This is the latest recevied weather packets stored in our database for station/object DO2HN-12. If no packets are shown the sender has not sent any weather packets the latest 1 day(s).
| Time | Temp. | Humidity | Pressure | Rain* | Wind** | Luminosity | Snow |
|---|---|---|---|---|---|---|---|
| 1777791924 | 20° C | 37% | 1018.6 hPa | - | - | - | - |
| 1777791023 | 19.44° C | 38% | 1018.6 hPa | - | - | - | - |
| 1777790123 | 19.44° C | 38% | 1018.7 hPa | - | - | - | - |
| 1777789222 | 18.89° C | 39% | 1018.7 hPa | - | - | - | - |
| 1777788321 | 18.33° C | 40% | 1018.6 hPa | - | - | - | - |
| 1777787420 | 17.78° C | 40% | 1018.6 hPa | - | - | - | - |
| 1777786519 | 17.22° C | 40% | 1018.7 hPa | - | - | - | - |
| 1777785619 | 17.22° C | 41% | 1018.6 hPa | - | - | - | - |
| 1777784718 | 16.11° C | 42% | 1018.7 hPa | - | - | - | - |
| 1777783817 | 15° C | 45% | 1018.7 hPa | - | - | - | - |
| 1777782916 | 13.33° C | 50% | 1018.7 hPa | - | - | - | - |
| 1777782015 | 12.78° C | 50% | 1018.8 hPa | - | - | - | - |
| 1777781115 | 12.22° C | 52% | 1018.8 hPa | - | - | - | - |
| 1777780214 | 11.67° C | 53% | 1018.7 hPa | - | - | - | - |
| 1777779313 | 11.67° C | 52% | 1018.9 hPa | - | - | - | - |
| 1777778412 | 11.67° C | 52% | 1018.7 hPa | - | - | - | - |
| 1777777511 | 12.22° C | 51% | 1018.7 hPa | - | - | - | - |
| 1777776611 | 11.67° C | 53% | 1018.8 hPa | - | - | - | - |
| 1777775710 | 11.67° C | 52% | 1018.8 hPa | - | - | - | - |
| 1777774809 | 11.11° C | 54% | 1018.8 hPa | - | - | - | - |
| 1777773908 | 11.11° C | 53% | 1018.9 hPa | - | - | - | - |
| 1777773007 | 11.67° C | 53% | 1018.9 hPa | - | - | - | - |
| 1777772107 | 11.11° C | 55% | 1018.9 hPa | - | - | - | - |
| 1777771205 | 11.11° C | 54% | 1018.9 hPa | - | - | - | - |
| 1777770304 | 11.11° C | 55% | 1019 hPa | - | - | - | - |
* Rain since midnight (hover to see other rain measurements)
** Current wind speed in m/s (hover to see current wind gust speed)